sensor_id;sensor_type;location;lat;lon;timestamp;temperature;humidity
45137;DHT22;30894;51.740;19.498;2024-01-06T00:01:29;-1.10;99.90
45137;DHT22;30894;51.740;19.498;2024-01-06T00:03:57;-1.70;99.90
45137;DHT22;30894;51.740;19.498;2024-01-06T00:06:29;-1.80;99.90
45137;DHT22;30894;51.740;19.498;2024-01-06T00:08:55;-1.60;99.90
45137;DHT22;30894;51.740;19.498;2024-01-06T00:11:24;-1.60;99.90
45137;DHT22;30894;51.740;19.498;2024-01-06T00:13:53;-1.60;99.90
45137;DHT22;30894;51.740;19.498;2024-01-06T00:16:21;-1.60;99.90
45137;DHT22;30894;51.740;19.498;2024-01-06T00:18:50;-1.50;99.90
45137;DHT22;30894;51.740;19.498;2024-01-06T00:21:17;-1.60;99.90
45137;DHT22;30894;51.740;19.498;2024-01-06T00:23:44;-1.50;99.90
45137;DHT22;30894;51.740;19.498;2024-01-06T00:26:12;-1.50;99.90
45137;DHT22;30894;51.740;19.498;2024-01-06T00:28:41;-1.50;99.90
45137;DHT22;30894;51.740;19.498;2024-01-06T00:31:12;-1.50;99.90
45137;DHT22;30894;51.740;19.498;2024-01-06T00:33:40;-1.40;99.90
45137;DHT22;30894;51.740;19.498;2024-01-06T00:36:09;-1.40;99.90
45137;DHT22;30894;51.740;19.498;2024-01-06T00:38:36;-1.30;99.90
45137;DHT22;30894;51.740;19.498;2024-01-06T00:41:03;-1.30;99.90
45137;DHT22;30894;51.740;19.498;2024-01-06T00:43:29;-1.40;99.90
45137;DHT22;30894;51.740;19.498;2024-01-06T00:45:56;-1.20;99.90
45137;DHT22;30894;51.740;19.498;2024-01-06T00:48:25;-1.80;99.90
45137;DHT22;30894;51.740;19.498;2024-01-06T00:50:52;-1.30;99.90
45137;DHT22;30894;51.740;19.498;2024-01-06T00:53:22;-1.30;99.90
45137;DHT22;30894;51.740;19.498;2024-01-06T00:55:49;-0.70;99.90
45137;DHT22;30894;51.740;19.498;2024-01-06T00:58:18;-1.30;99.90
45137;DHT22;30894;51.740;19.498;2024-01-06T01:00:45;-1.30;99.90
45137;DHT22;30894;51.740;19.498;2024-01-06T01:03:12;-1.30;99.90
45137;DHT22;30894;51.740;19.498;2024-01-06T01:05:38;-1.30;99.90
45137;DHT22;30894;51.740;19.498;2024-01-06T01:08:05;-1.40;99.90
45137;DHT22;30894;51.740;19.498;2024-01-06T01:10:31;-1.70;99.90
45137;DHT22;30894;51.740;19.498;2024-01-06T01:12:59;-1.20;99.90
45137;DHT22;30894;51.740;19.498;2024-01-06T01:15:27;-1.20;99.90
45137;DHT22;30894;51.740;19.498;2024-01-06T01:17:55;-1.20;99.90
45137;DHT22;30894;51.740;19.498;2024-01-06T01:20:21;-1.20;99.90
45137;DHT22;30894;51.740;19.498;2024-01-06T01:22:49;-1.20;99.90
45137;DHT22;30894;51.740;19.498;2024-01-06T01:25:18;-1.10;99.90
45137;DHT22;30894;51.740;19.498;2024-01-06T01:27:48;-1.10;99.90
45137;DHT22;30894;51.740;19.498;2024-01-06T01:30:16;-1.10;99.90
45137;DHT22;30894;51.740;19.498;2024-01-06T01:32:45;-1.10;99.90
45137;DHT22;30894;51.740;19.498;2024-01-06T01:35:14;-0.70;99.90
45137;DHT22;30894;51.740;19.498;2024-01-06T01:37:41;-1.10;99.90
45137;DHT22;30894;51.740;19.498;2024-01-06T01:40:08;-1.10;99.90
45137;DHT22;30894;51.740;19.498;2024-01-06T01:42:34;-1.10;99.90
45137;DHT22;30894;51.740;19.498;2024-01-06T01:45:00;-0.40;99.90
45137;DHT22;30894;51.740;19.498;2024-01-06T01:47:30;-1.10;99.90
45137;DHT22;30894;51.740;19.498;2024-01-06T01:49:59;-1.20;99.90
45137;DHT22;30894;51.740;19.498;2024-01-06T01:52:28;-1.20;99.90
45137;DHT22;30894;51.740;19.498;2024-01-06T01:54:57;-1.20;99.90
45137;DHT22;30894;51.740;19.498;2024-01-06T01:57:24;-1.20;99.90
45137;DHT22;30894;51.740;19.498;2024-01-06T01:59:54;-1.20;99.90
45137;DHT22;30894;51.740;19.498;2024-01-06T02:02:23;-1.30;99.90
45137;DHT22;30894;51.740;19.498;2024-01-06T02:04:52;-0.80;99.90
45137;DHT22;30894;51.740;19.498;2024-01-06T02:07:19;-1.80;99.90
45137;DHT22;30894;51.740;19.498;2024-01-06T02:09:46;-1.30;99.90
45137;DHT22;30894;51.740;19.498;2024-01-06T02:12:15;-1.30;99.90
45137;DHT22;30894;51.740;19.498;2024-01-06T02:14:47;-1.30;99.90
45137;DHT22;30894;51.740;19.498;2024-01-06T02:17:16;-0.80;99.90
45137;DHT22;30894;51.740;19.498;2024-01-06T02:19:42;-0.90;99.90
45137;DHT22;30894;51.740;19.498;2024-01-06T02:22:08;-1.30;99.90
45137;DHT22;30894;51.740;19.498;2024-01-06T02:24:35;-1.30;99.90
45137;DHT22;30894;51.740;19.498;2024-01-06T02:27:03;-1.30;99.90
45137;DHT22;30894;51.740;19.498;2024-01-06T02:29:32;-1.30;99.90
45137;DHT22;30894;51.740;19.498;2024-01-06T02:32:04;-1.30;99.90
45137;DHT22;30894;51.740;19.498;2024-01-06T02:34:31;-1.40;99.90
45137;DHT22;30894;51.740;19.498;2024-01-06T02:36:59;-1.30;99.90
45137;DHT22;30894;51.740;19.498;2024-01-06T02:39:25;-1.40;99.90
45137;DHT22;30894;51.740;19.498;2024-01-06T02:41:51;-1.30;99.90
45137;DHT22;30894;51.740;19.498;2024-01-06T02:44:18;-0.50;99.90
45137;DHT22;30894;51.740;19.498;2024-01-06T02:46:48;-1.00;99.90
45137;DHT22;30894;51.740;19.498;2024-01-06T02:49:16;-2.30;99.90
45137;DHT22;30894;51.740;19.498;2024-01-06T02:51:47;-1.30;99.90
45137;DHT22;30894;51.740;19.498;2024-01-06T02:54:16;-1.30;99.90
45137;DHT22;30894;51.740;19.498;2024-01-06T02:56:43;-1.30;99.90
45137;DHT22;30894;51.740;19.498;2024-01-06T02:59:13;-1.30;99.90
45137;DHT22;30894;51.740;19.498;2024-01-06T03:01:42;-1.30;99.90
45137;DHT22;30894;51.740;19.498;2024-01-06T03:04:10;-1.30;99.90
45137;DHT22;30894;51.740;19.498;2024-01-06T03:06:39;-1.30;99.90
45137;DHT22;30894;51.740;19.498;2024-01-06T03:09:06;-1.30;99.90
45137;DHT22;30894;51.740;19.498;2024-01-06T03:11:33;-1.30;99.90
45137;DHT22;30894;51.740;19.498;2024-01-06T03:14:00;-1.30;99.90
45137;DHT22;30894;51.740;19.498;2024-01-06T03:16:26;-1.30;99.90
45137;DHT22;30894;51.740;19.498;2024-01-06T03:18:54;-1.30;99.90
45137;DHT22;30894;51.740;19.498;2024-01-06T03:21:25;-1.20;99.90
45137;DHT22;30894;51.740;19.498;2024-01-06T03:23:55;-1.30;99.90
45137;DHT22;30894;51.740;19.498;2024-01-06T03:26:21;-0.70;99.90
45137;DHT22;30894;51.740;19.498;2024-01-06T03:28:50;-1.30;99.90
45137;DHT22;30894;51.740;19.498;2024-01-06T03:31:17;-0.20;99.90
45137;DHT22;30894;51.740;19.498;2024-01-06T03:33:44;-1.30;99.90
45137;DHT22;30894;51.740;19.498;2024-01-06T03:36:13;-1.30;99.90
45137;DHT22;30894;51.740;19.498;2024-01-06T03:38:43;-0.90;99.90
45137;DHT22;30894;51.740;19.498;2024-01-06T03:41:12;-1.30;99.90
45137;DHT22;30894;51.740;19.498;2024-01-06T03:43:38;-1.20;99.90
45137;DHT22;30894;51.740;19.498;2024-01-06T03:46:11;-1.20;99.90
45137;DHT22;30894;51.740;19.498;2024-01-06T03:48:42;-1.20;99.90
45137;DHT22;30894;51.740;19.498;2024-01-06T03:51:12;-1.20;99.90
45137;DHT22;30894;51.740;19.498;2024-01-06T03:53:38;-1.10;99.90
45137;DHT22;30894;51.740;19.498;2024-01-06T03:56:06;-1.10;99.90
45137;DHT22;30894;51.740;19.498;2024-01-06T03:58:33;-1.00;99.90
45137;DHT22;30894;51.740;19.498;2024-01-06T04:01:00;-1.10;99.90
45137;DHT22;30894;51.740;19.498;2024-01-06T04:03:32;-1.10;99.90
45137;DHT22;30894;51.740;19.498;2024-01-06T04:06:06;-1.00;99.90
45137;DHT22;30894;51.740;19.498;2024-01-06T04:08:39;-1.10;99.90
45137;DHT22;30894;51.740;19.498;2024-01-06T04:11:07;-1.00;99.90
45137;DHT22;30894;51.740;19.498;2024-01-06T04:13:33;-1.30;99.90
45137;DHT22;30894;51.740;19.498;2024-01-06T04:16:02;-0.40;99.90
45137;DHT22;30894;51.740;19.498;2024-01-06T04:18:28;-1.50;99.90
45137;DHT22;30894;51.740;19.498;2024-01-06T04:20:55;-1.10;99.90
45137;DHT22;30894;51.740;19.498;2024-01-06T04:23:21;-1.10;99.90
45137;DHT22;30894;51.740;19.498;2024-01-06T04:25:49;-1.10;99.90
45137;DHT22;30894;51.740;19.498;2024-01-06T04:28:18;-1.10;99.90
45137;DHT22;30894;51.740;19.498;2024-01-06T04:30:46;-1.10;99.90
45137;DHT22;30894;51.740;19.498;2024-01-06T04:33:12;-1.20;99.90
45137;DHT22;30894;51.740;19.498;2024-01-06T04:35:38;-1.10;99.90
45137;DHT22;30894;51.740;19.498;2024-01-06T04:38:06;-1.10;99.90
45137;DHT22;30894;51.740;19.498;2024-01-06T04:40:32;-1.20;99.90
45137;DHT22;30894;51.740;19.498;2024-01-06T04:42:59;-1.20;99.90
45137;DHT22;30894;51.740;19.498;2024-01-06T04:45:28;-1.20;99.90
45137;DHT22;30894;51.740;19.498;2024-01-06T04:47:54;-1.20;99.90
45137;DHT22;30894;51.740;19.498;2024-01-06T04:50:21;-1.30;99.90
45137;DHT22;30894;51.740;19.498;2024-01-06T04:53:00;-1.20;99.90
45137;DHT22;30894;51.740;19.498;2024-01-06T04:55:27;-1.20;99.90
45137;DHT22;30894;51.740;19.498;2024-01-06T04:57:54;-0.60;99.90
45137;DHT22;30894;51.740;19.498;2024-01-06T05:00:21;-0.80;99.90
45137;DHT22;30894;51.740;19.498;2024-01-06T05:02:53;-1.20;99.90
45137;DHT22;30894;51.740;19.498;2024-01-06T05:05:23;-1.10;99.90
45137;DHT22;30894;51.740;19.498;2024-01-06T05:07:50;-1.10;99.90
45137;DHT22;30894;51.740;19.498;2024-01-06T05:10:17;-1.20;99.90
45137;DHT22;30894;51.740;19.498;2024-01-06T05:12:46;-1.20;99.90
45137;DHT22;30894;51.740;19.498;2024-01-06T05:15:19;-1.10;99.90
45137;DHT22;30894;51.740;19.498;2024-01-06T05:17:45;-1.10;99.90
45137;DHT22;30894;51.740;19.498;2024-01-06T05:20:17;-1.10;99.90
45137;DHT22;30894;51.740;19.498;2024-01-06T05:22:44;-1.10;99.90
45137;DHT22;30894;51.740;19.498;2024-01-06T05:25:19;-1.10;99.90
45137;DHT22;30894;51.740;19.498;2024-01-06T05:27:45;-1.10;99.90
45137;DHT22;30894;51.740;19.498;2024-01-06T05:30:12;-1.10;99.90
45137;DHT22;30894;51.740;19.498;2024-01-06T05:32:41;-1.10;99.90
45137;DHT22;30894;51.740;19.498;2024-01-06T05:35:07;-1.10;99.90
45137;DHT22;30894;51.740;19.498;2024-01-06T05:37:36;-1.10;99.90
45137;DHT22;30894;51.740;19.498;2024-01-06T05:40:09;-0.80;99.90
45137;DHT22;30894;51.740;19.498;2024-01-06T05:42:40;-1.10;99.90
45137;DHT22;30894;51.740;19.498;2024-01-06T05:45:13;-1.20;99.90
45137;DHT22;30894;51.740;19.498;2024-01-06T05:47:44;-0.80;99.90
45137;DHT22;30894;51.740;19.498;2024-01-06T05:50:15;-1.20;99.90
45137;DHT22;30894;51.740;19.498;2024-01-06T05:52:42;-1.20;99.90
45137;DHT22;30894;51.740;19.498;2024-01-06T05:55:10;-1.20;99.90
45137;DHT22;30894;51.740;19.498;2024-01-06T05:57:36;-1.20;99.90
45137;DHT22;30894;51.740;19.498;2024-01-06T06:00:07;-1.90;99.90
45137;DHT22;30894;51.740;19.498;2024-01-06T06:02:40;-1.20;99.90
45137;DHT22;30894;51.740;19.498;2024-01-06T06:05:07;-1.20;99.90
45137;DHT22;30894;51.740;19.498;2024-01-06T06:07:33;-1.30;99.90
45137;DHT22;30894;51.740;19.498;2024-01-06T06:10:10;-1.30;99.90
45137;DHT22;30894;51.740;19.498;2024-01-06T06:12:37;-1.30;99.90
45137;DHT22;30894;51.740;19.498;2024-01-06T06:15:12;-1.30;99.90
45137;DHT22;30894;51.740;19.498;2024-01-06T06:17:44;-1.30;99.90
45137;DHT22;30894;51.740;19.498;2024-01-06T06:20:12;-1.30;99.90
45137;DHT22;30894;51.740;19.498;2024-01-06T06:22:38;-1.30;99.90
45137;DHT22;30894;51.740;19.498;2024-01-06T06:25:06;-1.30;99.90
45137;DHT22;30894;51.740;19.498;2024-01-06T06:27:33;-1.30;99.90
45137;DHT22;30894;51.740;19.498;2024-01-06T06:30:01;-1.30;99.90
45137;DHT22;30894;51.740;19.498;2024-01-06T06:32:33;-1.20;99.90
45137;DHT22;30894;51.740;19.498;2024-01-06T06:35:01;-1.70;99.90
45137;DHT22;30894;51.740;19.498;2024-01-06T06:37:29;-0.60;99.90
45137;DHT22;30894;51.740;19.498;2024-01-06T06:40:00;-1.20;99.90
45137;DHT22;30894;51.740;19.498;2024-01-06T06:42:28;-1.30;99.90
45137;DHT22;30894;51.740;19.498;2024-01-06T06:44:54;-1.20;99.90
45137;DHT22;30894;51.740;19.498;2024-01-06T06:47:24;-1.10;99.90
45137;DHT22;30894;51.740;19.498;2024-01-06T06:49:53;-1.20;99.90
45137;DHT22;30894;51.740;19.498;2024-01-06T06:52:19;-1.20;99.90
45137;DHT22;30894;51.740;19.498;2024-01-06T06:54:46;-1.20;99.90
45137;DHT22;30894;51.740;19.498;2024-01-06T06:57:15;-1.20;99.90
45137;DHT22;30894;51.740;19.498;2024-01-06T06:59:41;-1.20;99.90
45137;DHT22;30894;51.740;19.498;2024-01-06T07:02:08;-1.20;99.90
45137;DHT22;30894;51.740;19.498;2024-01-06T07:04:35;-1.10;99.90
45137;DHT22;30894;51.740;19.498;2024-01-06T07:07:05;-1.10;99.90
45137;DHT22;30894;51.740;19.498;2024-01-06T07:09:32;-1.10;99.90
45137;DHT22;30894;51.740;19.498;2024-01-06T07:11:58;-1.00;99.90
45137;DHT22;30894;51.740;19.498;2024-01-06T07:14:24;-0.90;99.90
45137;DHT22;30894;51.740;19.498;2024-01-06T07:16:52;-0.90;99.90
45137;DHT22;30894;51.740;19.498;2024-01-06T07:19:32;-0.90;99.90
45137;DHT22;30894;51.740;19.498;2024-01-06T07:21:59;-0.80;99.90
45137;DHT22;30894;51.740;19.498;2024-01-06T07:24:25;-0.90;99.90
45137;DHT22;30894;51.740;19.498;2024-01-06T07:26:52;-0.80;99.90
45137;DHT22;30894;51.740;19.498;2024-01-06T07:29:18;-0.80;99.90
45137;DHT22;30894;51.740;19.498;2024-01-06T07:31:45;-0.70;99.90
45137;DHT22;30894;51.740;19.498;2024-01-06T07:34:13;-0.70;99.90
45137;DHT22;30894;51.740;19.498;2024-01-06T07:36:41;-0.70;99.90
45137;DHT22;30894;51.740;19.498;2024-01-06T07:39:07;-0.80;99.90
45137;DHT22;30894;51.740;19.498;2024-01-06T07:41:33;-0.70;99.90
45137;DHT22;30894;51.740;19.498;2024-01-06T07:43:59;-0.70;99.90
45137;DHT22;30894;51.740;19.498;2024-01-06T07:46:27;-0.70;99.90
45137;DHT22;30894;51.740;19.498;2024-01-06T07:48:56;-0.70;99.90
45137;DHT22;30894;51.740;19.498;2024-01-06T07:51:23;-0.70;99.90
45137;DHT22;30894;51.740;19.498;2024-01-06T07:53:50;-0.70;99.90
45137;DHT22;30894;51.740;19.498;2024-01-06T07:56:23;-0.70;99.90
45137;DHT22;30894;51.740;19.498;2024-01-06T07:58:49;-0.60;99.90
45137;DHT22;30894;51.740;19.498;2024-01-06T08:01:21;-0.60;99.90
45137;DHT22;30894;51.740;19.498;2024-01-06T08:03:50;-0.60;99.90
45137;DHT22;30894;51.740;19.498;2024-01-06T08:06:17;-0.60;99.90
45137;DHT22;30894;51.740;19.498;2024-01-06T08:08:43;-0.50;99.90
45137;DHT22;30894;51.740;19.498;2024-01-06T08:11:12;-0.50;99.90
45137;DHT22;30894;51.740;19.498;2024-01-06T08:13:39;-0.50;99.90
45137;DHT22;30894;51.740;19.498;2024-01-06T08:16:05;-0.50;99.90
45137;DHT22;30894;51.740;19.498;2024-01-06T08:18:35;-0.50;99.90
45137;DHT22;30894;51.740;19.498;2024-01-06T08:21:01;-0.50;99.90
45137;DHT22;30894;51.740;19.498;2024-01-06T08:23:31;-0.80;99.90
45137;DHT22;30894;51.740;19.498;2024-01-06T08:26:02;-0.40;99.90
45137;DHT22;30894;51.740;19.498;2024-01-06T08:28:31;-0.40;99.90
45137;DHT22;30894;51.740;19.498;2024-01-06T08:30:57;-0.40;99.90
45137;DHT22;30894;51.740;19.498;2024-01-06T08:33:23;-0.30;99.90
45137;DHT22;30894;51.740;19.498;2024-01-06T08:35:50;-0.30;99.90
45137;DHT22;30894;51.740;19.498;2024-01-06T08:38:16;-0.30;99.90
45137;DHT22;30894;51.740;19.498;2024-01-06T08:40:43;-0.30;99.90
45137;DHT22;30894;51.740;19.498;2024-01-06T08:43:17;-0.30;99.90
45137;DHT22;30894;51.740;19.498;2024-01-06T08:45:44;-0.30;99.90
45137;DHT22;30894;51.740;19.498;2024-01-06T08:48:11;-0.30;99.90
45137;DHT22;30894;51.740;19.498;2024-01-06T08:50:43;-0.30;99.90
45137;DHT22;30894;51.740;19.498;2024-01-06T08:53:11;-0.30;99.90
45137;DHT22;30894;51.740;19.498;2024-01-06T08:55:39;-0.70;99.90
45137;DHT22;30894;51.740;19.498;2024-01-06T08:58:10;-0.30;99.90
45137;DHT22;30894;51.740;19.498;2024-01-06T09:00:39;-0.30;99.90
45137;DHT22;30894;51.740;19.498;2024-01-06T09:03:05;-0.30;99.90
45137;DHT22;30894;51.740;19.498;2024-01-06T09:05:35;-0.30;99.90
45137;DHT22;30894;51.740;19.498;2024-01-06T09:08:02;-0.30;99.90
45137;DHT22;30894;51.740;19.498;2024-01-06T09:10:29;-0.30;99.90
45137;DHT22;30894;51.740;19.498;2024-01-06T09:12:58;-0.30;99.90
45137;DHT22;30894;51.740;19.498;2024-01-06T09:15:24;-0.30;99.90
45137;DHT22;30894;51.740;19.498;2024-01-06T09:17:51;-0.30;99.90
45137;DHT22;30894;51.740;19.498;2024-01-06T09:20:20;-0.30;99.90
45137;DHT22;30894;51.740;19.498;2024-01-06T09:22:49;-0.30;99.90
45137;DHT22;30894;51.740;19.498;2024-01-06T09:25:21;-0.30;99.90
45137;DHT22;30894;51.740;19.498;2024-01-06T09:27:53;-0.30;99.90
45137;DHT22;30894;51.740;19.498;2024-01-06T09:30:19;-0.30;99.90
45137;DHT22;30894;51.740;19.498;2024-01-06T09:32:48;-0.30;99.90
45137;DHT22;30894;51.740;19.498;2024-01-06T09:35:17;-0.30;99.90
45137;DHT22;30894;51.740;19.498;2024-01-06T09:37:51;0.00;99.90
45137;DHT22;30894;51.740;19.498;2024-01-06T09:40:24;-0.40;99.90
45137;DHT22;30894;51.740;19.498;2024-01-06T09:42:54;-0.40;99.90
45137;DHT22;30894;51.740;19.498;2024-01-06T09:45:23;-0.40;99.90
45137;DHT22;30894;51.740;19.498;2024-01-06T09:47:51;-0.40;99.90
45137;DHT22;30894;51.740;19.498;2024-01-06T09:50:19;-0.30;99.90
45137;DHT22;30894;51.740;19.498;2024-01-06T09:52:46;-0.30;99.90
45137;DHT22;30894;51.740;19.498;2024-01-06T09:55:24;-0.30;99.90
45137;DHT22;30894;51.740;19.498;2024-01-06T09:57:58;-0.20;99.90
45137;DHT22;30894;51.740;19.498;2024-01-06T10:00:32;-0.30;99.90
45137;DHT22;30894;51.740;19.498;2024-01-06T10:03:00;-0.30;99.90
45137;DHT22;30894;51.740;19.498;2024-01-06T10:05:27;-0.30;99.90
45137;DHT22;30894;51.740;19.498;2024-01-06T10:07:56;0.10;99.90
45137;DHT22;30894;51.740;19.498;2024-01-06T10:10:23;-0.20;99.90
45137;DHT22;30894;51.740;19.498;2024-01-06T10:12:52;-0.60;99.90
45137;DHT22;30894;51.740;19.498;2024-01-06T10:15:20;-0.30;99.90
45137;DHT22;30894;51.740;19.498;2024-01-06T10:17:50;-0.20;99.90
45137;DHT22;30894;51.740;19.498;2024-01-06T10:20:16;-0.30;99.90
45137;DHT22;30894;51.740;19.498;2024-01-06T10:22:43;-0.60;99.90
45137;DHT22;30894;51.740;19.498;2024-01-06T10:25:11;-0.30;99.90
45137;DHT22;30894;51.740;19.498;2024-01-06T10:27:38;-0.30;99.90
45137;DHT22;30894;51.740;19.498;2024-01-06T10:30:07;0.00;99.90
45137;DHT22;30894;51.740;19.498;2024-01-06T10:32:34;-0.30;99.90
45137;DHT22;30894;51.740;19.498;2024-01-06T10:35:02;-0.30;99.90
45137;DHT22;30894;51.740;19.498;2024-01-06T10:37:33;-0.30;99.90
45137;DHT22;30894;51.740;19.498;2024-01-06T10:40:13;-0.30;99.90
45137;DHT22;30894;51.740;19.498;2024-01-06T10:42:44;-0.30;99.90
45137;DHT22;30894;51.740;19.498;2024-01-06T10:45:12;-0.40;99.90
45137;DHT22;30894;51.740;19.498;2024-01-06T10:47:42;-0.40;99.90
45137;DHT22;30894;51.740;19.498;2024-01-06T10:50:10;-0.40;99.90
45137;DHT22;30894;51.740;19.498;2024-01-06T10:52:41;-0.40;99.90
45137;DHT22;30894;51.740;19.498;2024-01-06T10:55:08;-0.50;99.90
45137;DHT22;30894;51.740;19.498;2024-01-06T10:57:34;-0.50;99.90
45137;DHT22;30894;51.740;19.498;2024-01-06T11:00:06;-0.50;99.90
45137;DHT22;30894;51.740;19.498;2024-01-06T11:02:34;-0.50;99.90
45137;DHT22;30894;51.740;19.498;2024-01-06T11:05:01;-0.50;99.90
45137;DHT22;30894;51.740;19.498;2024-01-06T11:07:27;-0.50;99.90
45137;DHT22;30894;51.740;19.498;2024-01-06T11:10:13;-0.50;99.90
45137;DHT22;30894;51.740;19.498;2024-01-06T11:12:43;-0.50;99.90
45137;DHT22;30894;51.740;19.498;2024-01-06T11:15:09;-0.50;99.90
45137;DHT22;30894;51.740;19.498;2024-01-06T11:17:52;-0.50;99.90
45137;DHT22;30894;51.740;19.498;2024-01-06T11:20:23;-0.50;99.90
45137;DHT22;30894;51.740;19.498;2024-01-06T11:22:53;-0.50;99.90
45137;DHT22;30894;51.740;19.498;2024-01-06T11:25:21;-0.50;99.90
45137;DHT22;30894;51.740;19.498;2024-01-06T11:27:48;-0.50;99.90
45137;DHT22;30894;51.740;19.498;2024-01-06T11:30:26;-0.50;99.90
45137;DHT22;30894;51.740;19.498;2024-01-06T11:32:57;-0.50;99.90
45137;DHT22;30894;51.740;19.498;2024-01-06T11:35:27;-0.60;99.90
45137;DHT22;30894;51.740;19.498;2024-01-06T11:37:55;-0.60;99.90
45137;DHT22;30894;51.740;19.498;2024-01-06T11:43:07;-0.60;99.90
45137;DHT22;30894;51.740;19.498;2024-01-06T11:45:44;-0.60;99.90
45137;DHT22;30894;51.740;19.498;2024-01-06T11:48:11;-0.60;99.90
45137;DHT22;30894;51.740;19.498;2024-01-06T11:50:40;-0.60;99.90
45137;DHT22;30894;51.740;19.498;2024-01-06T11:53:09;-0.70;99.90
45137;DHT22;30894;51.740;19.498;2024-01-06T11:55:39;-0.70;99.90
45137;DHT22;30894;51.740;19.498;2024-01-06T11:58:05;-0.70;99.90
45137;DHT22;30894;51.740;19.498;2024-01-06T12:00:33;-0.70;99.90
45137;DHT22;30894;51.740;19.498;2024-01-06T12:03:03;-0.70;99.90
45137;DHT22;30894;51.740;19.498;2024-01-06T12:05:31;-0.70;99.90
45137;DHT22;30894;51.740;19.498;2024-01-06T12:08:01;-0.70;99.90
45137;DHT22;30894;51.740;19.498;2024-01-06T12:10:33;-0.70;99.90
45137;DHT22;30894;51.740;19.498;2024-01-06T12:13:28;-0.70;99.90
45137;DHT22;30894;51.740;19.498;2024-01-06T12:15:55;-0.70;99.90
45137;DHT22;30894;51.740;19.498;2024-01-06T12:18:21;-0.70;99.90
45137;DHT22;30894;51.740;19.498;2024-01-06T12:20:48;-0.70;99.90
45137;DHT22;30894;51.740;19.498;2024-01-06T12:23:27;-0.70;99.90
45137;DHT22;30894;51.740;19.498;2024-01-06T12:25:55;-0.70;99.90
45137;DHT22;30894;51.740;19.498;2024-01-06T12:28:22;-0.70;99.90
45137;DHT22;30894;51.740;19.498;2024-01-06T12:30:49;-0.70;99.90
45137;DHT22;30894;51.740;19.498;2024-01-06T12:33:17;-0.60;99.90
45137;DHT22;30894;51.740;19.498;2024-01-06T12:35:44;-0.60;99.90
45137;DHT22;30894;51.740;19.498;2024-01-06T12:38:10;-0.20;99.90
45137;DHT22;30894;51.740;19.498;2024-01-06T12:40:36;-0.60;99.90
45137;DHT22;30894;51.740;19.498;2024-01-06T12:43:17;-0.60;99.90
45137;DHT22;30894;51.740;19.498;2024-01-06T12:45:45;-0.60;99.90
45137;DHT22;30894;51.740;19.498;2024-01-06T12:48:15;-0.50;99.90
45137;DHT22;30894;51.740;19.498;2024-01-06T12:50:41;-0.60;99.90
45137;DHT22;30894;51.740;19.498;2024-01-06T12:53:07;-0.60;99.90
45137;DHT22;30894;51.740;19.498;2024-01-06T12:55:34;-0.60;99.90
45137;DHT22;30894;51.740;19.498;2024-01-06T12:58:02;-0.60;99.90
45137;DHT22;30894;51.740;19.498;2024-01-06T13:00:30;-0.60;99.90
45137;DHT22;30894;51.740;19.498;2024-01-06T13:02:56;-0.70;99.90
45137;DHT22;30894;51.740;19.498;2024-01-06T13:05:24;-0.70;99.90
45137;DHT22;30894;51.740;19.498;2024-01-06T13:07:50;-0.70;99.90
45137;DHT22;30894;51.740;19.498;2024-01-06T13:10:17;-0.70;99.90
45137;DHT22;30894;51.740;19.498;2024-01-06T13:12:45;-0.70;99.90
45137;DHT22;30894;51.740;19.498;2024-01-06T13:15:16;-0.70;99.90
45137;DHT22;30894;51.740;19.498;2024-01-06T13:17:49;-0.80;99.90
45137;DHT22;30894;51.740;19.498;2024-01-06T13:20:19;-0.80;99.90
45137;DHT22;30894;51.740;19.498;2024-01-06T13:22:46;-0.90;99.90
45137;DHT22;30894;51.740;19.498;2024-01-06T13:25:12;-0.90;99.90
45137;DHT22;30894;51.740;19.498;2024-01-06T13:27:38;-0.90;99.90
45137;DHT22;30894;51.740;19.498;2024-01-06T13:30:06;-0.90;99.90
45137;DHT22;30894;51.740;19.498;2024-01-06T13:32:32;-0.90;99.90
45137;DHT22;30894;51.740;19.498;2024-01-06T13:35:00;-0.90;99.90
45137;DHT22;30894;51.740;19.498;2024-01-06T13:37:33;-1.30;99.90
45137;DHT22;30894;51.740;19.498;2024-01-06T13:40:00;-1.00;99.90
45137;DHT22;30894;51.740;19.498;2024-01-06T13:42:26;-1.00;99.90
45137;DHT22;30894;51.740;19.498;2024-01-06T13:44:53;-1.00;99.90
45137;DHT22;30894;51.740;19.498;2024-01-06T13:47:27;-1.10;99.90
45137;DHT22;30894;51.740;19.498;2024-01-06T13:49:54;-1.00;99.90
45137;DHT22;30894;51.740;19.498;2024-01-06T13:52:22;-1.10;99.90
45137;DHT22;30894;51.740;19.498;2024-01-06T13:54:49;-0.60;99.90
45137;DHT22;30894;51.740;19.498;2024-01-06T13:57:15;-1.10;99.90
45137;DHT22;30894;51.740;19.498;2024-01-06T13:59:41;-1.20;99.90
45137;DHT22;30894;51.740;19.498;2024-01-06T14:02:13;-0.80;99.90
45137;DHT22;30894;51.740;19.498;2024-01-06T14:04:39;-1.20;99.90
45137;DHT22;30894;51.740;19.498;2024-01-06T14:07:05;-1.20;99.90
45137;DHT22;30894;51.740;19.498;2024-01-06T14:09:32;-1.20;99.90
45137;DHT22;30894;51.740;19.498;2024-01-06T14:12:06;-1.30;99.90
45137;DHT22;30894;51.740;19.498;2024-01-06T14:14:35;-1.30;99.90
45137;DHT22;30894;51.740;19.498;2024-01-06T14:17:03;-1.30;99.90
45137;DHT22;30894;51.740;19.498;2024-01-06T14:19:32;-1.30;99.90
45137;DHT22;30894;51.740;19.498;2024-01-06T14:21:58;-1.30;99.90
45137;DHT22;30894;51.740;19.498;2024-01-06T14:24:24;-1.30;99.90
45137;DHT22;30894;51.740;19.498;2024-01-06T14:26:52;-1.40;99.90
45137;DHT22;30894;51.740;19.498;2024-01-06T14:29:49;-1.10;99.90
45137;DHT22;30894;51.740;19.498;2024-01-06T14:32:24;-1.40;99.90
45137;DHT22;30894;51.740;19.498;2024-01-06T14:34:51;-1.00;99.90
45137;DHT22;30894;51.740;19.498;2024-01-06T14:37:22;-1.50;99.90
45137;DHT22;30894;51.740;19.498;2024-01-06T14:39:50;-1.60;99.90
45137;DHT22;30894;51.740;19.498;2024-01-06T14:42:16;-1.50;99.90
45137;DHT22;30894;51.740;19.498;2024-01-06T14:44:47;-1.50;99.90
45137;DHT22;30894;51.740;19.498;2024-01-06T14:47:14;-1.60;99.90
45137;DHT22;30894;51.740;19.498;2024-01-06T14:49:44;-1.60;99.90
45137;DHT22;30894;51.740;19.498;2024-01-06T14:52:15;-1.60;99.90
45137;DHT22;30894;51.740;19.498;2024-01-06T14:54:46;-1.60;99.90
45137;DHT22;30894;51.740;19.498;2024-01-06T14:57:12;-1.60;99.90
45137;DHT22;30894;51.740;19.498;2024-01-06T14:59:40;-1.60;99.90
45137;DHT22;30894;51.740;19.498;2024-01-06T15:02:07;-1.70;99.90
45137;DHT22;30894;51.740;19.498;2024-01-06T15:04:33;-1.70;99.90
45137;DHT22;30894;51.740;19.498;2024-01-06T15:06:59;-1.70;99.90
45137;DHT22;30894;51.740;19.498;2024-01-06T15:09:29;-1.70;99.90
45137;DHT22;30894;51.740;19.498;2024-01-06T15:11:55;-1.70;99.90
45137;DHT22;30894;51.740;19.498;2024-01-06T15:14:25;-1.70;99.90
45137;DHT22;30894;51.740;19.498;2024-01-06T15:16:51;-1.70;99.90
45137;DHT22;30894;51.740;19.498;2024-01-06T15:19:19;-1.80;99.90
45137;DHT22;30894;51.740;19.498;2024-01-06T15:21:49;-1.80;99.90
45137;DHT22;30894;51.740;19.498;2024-01-06T15:24:18;-1.80;99.90
45137;DHT22;30894;51.740;19.498;2024-01-06T15:26:45;-1.80;99.90